Time;durP1;ratioP1;P1;durP2;ratioP2;P2;SDS_P1;SDS_P2;PMS_P1;PMS_P2;Temp;Humidity;BMP_temperature;BMP_pressure;BME280_temperature;BME280_humidity;BME280_pressure;Samples;Min_cycle;Max_cycle;Signal;HPM_P1;HPM_P2
2023/05/17 00:00:31;;;;;;;6.23;1.80;;;9.30;99.90;;;;;;5055043;28;20200;-58
2023/05/17 00:02:59;;;;;;;2.83;2.00;;;9.30;99.90;;;;;;5054829;28;20254;-58
2023/05/17 00:05:26;;;;;;;2.70;1.80;;;9.30;99.90;;;;;;5064810;28;20246;-58
2023/05/17 00:07:53;;;;;;;2.20;2.00;;;9.30;99.90;;;;;;5056816;28;20249;-58
2023/05/17 00:10:20;;;;;;;3.77;2.50;;;9.20;99.90;;;;;;5057938;28;20220;-58
2023/05/17 00:12:47;;;;;;;4.27;2.80;;;9.30;99.90;;;;;;5049182;28;20735;-58
2023/05/17 00:15:14;;;;;;;5.60;2.03;;;9.30;99.90;;;;;;5059664;28;20195;-58
2023/05/17 00:17:44;;;;;;;4.87;2.47;;;9.30;99.90;;;;;;5066646;28;20310;-58
2023/05/17 00:20:13;;;;;;;6.50;2.30;;;9.20;99.90;;;;;;5073254;28;20203;-58
2023/05/17 00:22:42;;;;;;;3.03;2.70;;;9.20;99.90;;;;;;5057670;28;20197;-58
2023/05/17 00:25:09;;;;;;;3.30;2.10;;;9.20;99.90;;;;;;5049630;28;20277;-58
2023/05/17 00:27:36;;;;;;;5.43;1.63;;;9.20;99.90;;;;;;5055037;28;20220;-58
2023/05/17 00:30:03;;;;;;;5.13;2.33;;;9.20;99.90;;;;;;5061887;28;20213;-58
2023/05/17 00:32:30;;;;;;;4.73;2.00;;;9.20;99.90;;;;;;5052913;28;20254;-58
2023/05/17 00:34:57;;;;;;;6.13;2.07;;;9.20;99.90;;;;;;5051562;28;20247;-58
2023/05/17 00:37:25;;;;;;;3.63;2.60;;;9.20;99.90;;;;;;5052841;28;20249;-58
2023/05/17 00:39:52;;;;;;;3.53;2.30;;;9.20;99.90;;;;;;5058952;28;20257;-58
2023/05/17 00:42:19;;;;;;;2.67;2.33;;;9.20;99.90;;;;;;5061154;28;20200;-56
2023/05/17 00:44:46;;;;;;;5.27;2.40;;;9.20;99.90;;;;;;5052723;28;20199;-56
2023/05/17 00:47:13;;;;;;;3.03;1.87;;;9.30;99.90;;;;;;5045969;28;20304;-56
2023/05/17 00:49:40;;;;;;;3.47;2.33;;;9.30;99.90;;;;;;5049551;28;20277;-56
2023/05/17 00:52:07;;;;;;;4.60;2.47;;;9.30;99.90;;;;;;5062303;28;20266;-57
2023/05/17 00:54:36;;;;;;;2.00;1.90;;;9.40;99.90;;;;;;5070922;28;20199;-57
2023/05/17 00:57:05;;;;;;;4.20;2.37;;;9.40;99.90;;;;;;5052492;28;20265;-56
2023/05/17 00:59:32;;;;;;;8.77;2.90;;;9.40;99.90;;;;;;5052293;28;20341;-56
2023/05/17 01:02:00;;;;;;;5.23;2.67;;;9.50;99.90;;;;;;5051963;28;20207;-56
2023/05/17 01:04:27;;;;;;;8.77;2.07;;;9.40;99.90;;;;;;5063616;28;20196;-57
2023/05/17 01:06:54;;;;;;;6.87;2.33;;;9.30;99.90;;;;;;5058653;28;20253;-57
2023/05/17 01:09:21;;;;;;;3.67;2.47;;;9.30;99.90;;;;;;5052776;28;20224;-57
2023/05/17 01:12:01;;;;;;;5.37;2.43;;;9.30;99.90;;;;;;5050124;28;20196;-57
2023/05/17 01:14:38;;;;;;;4.00;2.30;;;9.30;99.90;;;;;;5060263;28;20243;-57
2023/05/17 01:17:10;;;;;;;9.40;2.47;;;9.30;99.90;;;;;;5068727;28;20217;-57
2023/05/17 01:19:52;;;;;;;6.40;2.40;;;9.40;99.90;;;;;;5061948;28;20620;-57
2023/05/17 01:22:31;;;;;;;7.03;2.90;;;9.30;99.90;;;;;;5053418;28;20740;-57
2023/05/17 01:25:11;;;;;;;4.87;3.13;;;9.20;99.90;;;;;;5063634;28;20191;-57
2023/05/17 01:27:44;;;;;;;5.20;2.20;;;9.20;99.90;;;;;;5053729;28;20719;-57
2023/05/17 01:30:14;;;;;;;4.83;2.00;;;9.10;99.90;;;;;;5060959;28;20216;-57
2023/05/17 01:32:43;;;;;;;5.77;2.10;;;9.10;99.90;;;;;;5069781;28;20218;-57
2023/05/17 01:35:11;;;;;;;4.80;2.13;;;9.10;99.90;;;;;;5058902;28;20255;-57
2023/05/17 01:37:38;;;;;;;6.30;2.10;;;9.10;99.90;;;;;;5063676;28;20213;-57
2023/05/17 01:40:09;;;;;;;4.87;2.50;;;9.10;99.90;;;;;;5069242;28;20191;-57
2023/05/17 01:42:42;;;;;;;5.97;1.70;;;9.00;99.90;;;;;;5053250;28;20661;-57
2023/05/17 01:45:17;;;;;;;4.30;1.83;;;9.10;99.90;;;;;;5050843;28;20203;-57
2023/05/17 01:47:50;;;;;;;2.23;2.03;;;9.00;99.90;;;;;;5051351;28;20717;-57
2023/05/17 01:50:23;;;;;;;2.43;2.30;;;9.00;99.90;;;;;;5050899;28;20223;-57
2023/05/17 01:52:54;;;;;;;4.13;3.83;;;9.10;99.90;;;;;;5051690;28;20200;-57
2023/05/17 01:55:26;;;;;;;3.73;2.30;;;9.00;99.90;;;;;;5067446;28;20198;-57
2023/05/17 01:57:56;;;;;;;2.77;2.60;;;9.00;99.90;;;;;;5049992;28;20613;-57
2023/05/17 02:00:26;;;;;;;2.17;2.07;;;9.00;99.90;;;;;;5054228;28;20294;-57
2023/05/17 02:02:53;;;;;;;5.23;2.50;;;9.00;99.90;;;;;;5060541;28;20278;-57
2023/05/17 02:05:20;;;;;;;2.63;2.27;;;9.00;99.90;;;;;;5049469;28;20197;-57
2023/05/17 02:07:47;;;;;;;2.90;2.30;;;9.00;99.90;;;;;;5059634;28;20284;-57
2023/05/17 02:10:14;;;;;;;2.70;2.43;;;9.00;99.90;;;;;;5069392;28;20268;-57
2023/05/17 02:12:43;;;;;;;4.57;2.70;;;8.90;99.90;;;;;;5065495;28;20230;-57
2023/05/17 02:15:12;;;;;;;4.77;2.63;;;9.00;99.90;;;;;;5048872;28;20200;-57
2023/05/17 02:17:41;;;;;;;3.77;2.53;;;8.90;99.90;;;;;;5056663;28;20223;-57
2023/05/17 02:20:10;;;;;;;6.97;2.63;;;9.00;99.90;;;;;;5060132;28;20888;-57
2023/05/17 02:22:38;;;;;;;4.20;2.50;;;9.00;99.90;;;;;;5065917;28;20603;-57
2023/05/17 02:25:06;;;;;;;2.63;2.53;;;9.10;99.90;;;;;;5059730;28;20196;-57
2023/05/17 02:27:33;;;;;;;5.10;2.53;;;9.10;99.90;;;;;;5071261;28;20289;-57
2023/05/17 02:30:01;;;;;;;2.60;2.40;;;9.20;99.90;;;;;;5060978;28;20280;-57
2023/05/17 02:32:29;;;;;;;4.37;2.47;;;9.20;99.90;;;;;;5052724;28;20265;-57
2023/05/17 02:34:56;;;;;;;5.07;1.93;;;9.20;99.90;;;;;;5051168;28;20208;-57
2023/05/17 02:37:23;;;;;;;4.77;2.10;;;9.20;99.90;;;;;;5051266;28;20610;-57
2023/05/17 02:39:50;;;;;;;5.60;2.33;;;9.10;99.90;;;;;;5049557;28;20220;-57
2023/05/17 02:42:17;;;;;;;4.20;2.10;;;9.00;99.90;;;;;;5060276;28;20627;-57
2023/05/17 02:44:44;;;;;;;2.50;1.90;;;9.00;99.90;;;;;;5054967;28;20254;-57
2023/05/17 02:47:11;;;;;;;5.60;2.20;;;9.00;99.90;;;;;;5072563;22;20593;-59
2023/05/17 02:49:39;;;;;;;4.73;1.77;;;9.00;99.90;;;;;;5041623;28;20244;-59
2023/05/17 02:52:07;;;;;;;3.30;1.97;;;9.00;99.90;;;;;;5048377;28;20261;-59
2023/05/17 02:54:34;;;;;;;2.50;1.87;;;9.00;99.90;;;;;;5041289;28;20279;-59
2023/05/17 02:57:01;;;;;;;2.43;2.23;;;9.00;99.90;;;;;;5049866;28;20228;-59
2023/05/17 02:59:28;;;;;;;3.73;2.00;;;9.00;99.90;;;;;;5045470;28;20204;-59
2023/05/17 03:01:55;;;;;;;3.20;1.90;;;9.00;99.90;;;;;;5030565;28;20982;-59
2023/05/17 03:04:22;;;;;;;3.40;1.20;;;9.00;99.90;;;;;;5031457;28;20259;-59
2023/05/17 03:06:50;;;;;;;4.10;1.30;;;8.90;99.90;;;;;;5037083;28;20318;-59
2023/05/17 03:09:17;;;;;;;2.07;1.37;;;8.90;99.90;;;;;;5046624;28;20216;-59
2023/05/17 03:11:44;;;;;;;1.13;1.13;;;8.90;99.90;;;;;;5039141;28;20255;-59
2023/05/17 03:14:12;;;;;;;2.50;1.20;;;8.90;99.90;;;;;;5038960;28;20205;-60
2023/05/17 03:16:39;;;;;;;1.60;1.27;;;8.90;99.90;;;;;;5032796;28;20223;-60
2023/05/17 03:19:06;;;;;;;3.60;1.63;;;8.90;99.90;;;;;;5030083;28;20197;-59
2023/05/17 03:21:33;;;;;;;2.30;1.30;;;8.90;99.90;;;;;;5036502;28;20194;-59
2023/05/17 03:24:01;;;;;;;4.10;1.30;;;8.90;99.90;;;;;;5044598;28;20249;-59
2023/05/17 03:26:28;;;;;;;2.30;1.57;;;8.90;99.90;;;;;;5042631;28;20271;-60
2023/05/17 03:28:55;;;;;;;2.90;1.23;;;8.80;99.90;;;;;;5048201;28;20297;-59
2023/05/17 03:31:22;;;;;;;2.33;1.43;;;8.80;99.90;;;;;;5047456;28;20294;-60
2023/05/17 03:33:49;;;;;;;3.63;1.47;;;8.70;99.90;;;;;;5032496;28;20681;-59
2023/05/17 03:36:16;;;;;;;1.47;1.33;;;8.80;99.90;;;;;;5040210;28;20209;-59
2023/05/17 03:38:43;;;;;;;2.60;1.70;;;8.70;99.90;;;;;;5046445;28;20496;-59
2023/05/17 03:41:11;;;;;;;3.10;1.10;;;8.70;99.90;;;;;;5050938;28;20199;-59
2023/05/17 03:43:38;;;;;;;1.20;1.20;;;8.70;99.90;;;;;;5044006;28;20196;-60
2023/05/17 03:46:05;;;;;;;5.60;2.40;;;8.70;99.90;;;;;;5046967;28;20209;-59
2023/05/17 03:48:32;;;;;;;1.80;1.40;;;8.70;99.90;;;;;;5040398;28;20288;-60
2023/05/17 03:50:59;;;;;;;2.13;1.70;;;8.70;99.90;;;;;;5040030;28;20213;-59
2023/05/17 03:53:26;;;;;;;1.43;1.10;;;8.80;99.90;;;;;;5039513;28;20258;-59
2023/05/17 03:55:53;;;;;;;1.20;1.10;;;8.80;99.90;;;;;;5040200;28;20740;-59
2023/05/17 03:58:21;;;;;;;2.30;1.10;;;8.80;99.90;;;;;;5042915;28;20216;-59
2023/05/17 04:00:48;;;;;;;3.13;1.83;;;8.70;99.90;;;;;;5052453;28;20246;-59
2023/05/17 04:03:15;;;;;;;5.83;4.07;;;8.80;99.90;;;;;;5040702;28;20203;-59
2023/05/17 04:05:44;;;;;;;5.60;3.53;;;8.80;99.90;;;;;;5033111;28;20572;-59
2023/05/17 04:08:11;;;;;;;3.40;2.03;;;8.80;99.90;;;;;;5039552;28;20713;-60
2023/05/17 04:10:40;;;;;;;1.80;1.43;;;8.90;99.90;;;;;;5032261;28;20220;-60
2023/05/17 04:13:07;;;;;;;3.00;1.63;;;8.90;99.90;;;;;;5040183;28;20220;-59
2023/05/17 04:15:36;;;;;;;5.73;1.50;;;8.80;99.90;;;;;;5052398;28;20258;-59
2023/05/17 04:18:03;;;;;;;3.63;1.50;;;8.80;99.90;;;;;;5051768;28;20224;-60
2023/05/17 04:20:30;;;;;;;2.40;1.03;;;8.90;99.90;;;;;;5033246;28;20212;-60
2023/05/17 04:22:57;;;;;;;1.73;1.60;;;9.00;99.90;;;;;;5031181;28;20243;-59
2023/05/17 04:25:24;;;;;;;5.23;1.93;;;8.90;99.90;;;;;;5051556;28;20204;-59
2023/05/17 04:27:51;;;;;;;2.30;1.43;;;8.80;99.90;;;;;;5052026;28;20248;-59
2023/05/17 04:30:20;;;;;;;5.30;1.20;;;8.80;99.90;;;;;;5051904;28;20246;-59
2023/05/17 04:32:49;;;;;;;7.30;1.63;;;8.80;99.90;;;;;;5042784;28;20199;-60
2023/05/17 04:35:16;;;;;;;1.83;1.50;;;8.80;99.90;;;;;;5030769;28;20246;-60
2023/05/17 04:37:44;;;;;;;5.90;1.97;;;8.80;99.90;;;;;;5041661;28;20281;-60
2023/05/17 04:40:13;;;;;;;3.77;1.30;;;8.90;99.90;;;;;;5032426;28;20763;-59
2023/05/17 04:42:41;;;;;;;4.10;0.97;;;8.90;99.90;;;;;;5034802;28;20265;-59
2023/05/17 04:45:09;;;;;;;3.57;1.03;;;8.90;99.90;;;;;;5028723;28;20205;-59
2023/05/17 04:47:39;;;;;;;4.10;1.23;;;8.80;99.90;;;;;;5027305;28;20232;-59
2023/05/17 04:50:08;;;;;;;3.20;0.90;;;8.80;99.90;;;;;;5032049;28;20195;-59
2023/05/17 04:52:35;;;;;;;3.23;1.30;;;8.70;99.90;;;;;;5031129;28;20219;-59
2023/05/17 04:55:04;;;;;;;3.50;1.30;;;8.70;99.90;;;;;;5030292;28;20207;-59
2023/05/17 04:57:31;;;;;;;3.53;1.57;;;8.70;99.90;;;;;;5030037;28;20700;-59
2023/05/17 05:00:01;;;;;;;3.23;1.50;;;8.50;99.90;;;;;;5031243;28;20251;-59
2023/05/17 05:02:28;;;;;;;4.80;1.20;;;8.50;99.90;;;;;;5031312;28;20282;-59
2023/05/17 05:04:55;;;;;;;3.60;1.10;;;8.50;99.90;;;;;;5037818;28;20261;-59
2023/05/17 05:07:24;;;;;;;1.37;0.77;;;8.40;99.90;;;;;;5032718;28;20228;-59
2023/05/17 05:09:51;;;;;;;5.13;1.20;;;8.40;99.90;;;;;;5038529;28;20298;-59
2023/05/17 05:12:19;;;;;;;3.80;2.13;;;8.50;99.90;;;;;;5021856;28;20224;-59
2023/05/17 05:14:46;;;;;;;6.63;1.60;;;8.50;99.90;;;;;;5031726;28;20261;-59
2023/05/17 05:17:13;;;;;;;1.57;1.47;;;8.50;99.90;;;;;;5031379;28;20218;-59
2023/05/17 05:19:40;;;;;;;7.03;1.40;;;8.50;99.90;;;;;;5039150;28;20269;-59
2023/05/17 05:22:07;;;;;;;3.17;0.93;;;8.50;99.90;;;;;;5034513;28;20224;-59
2023/05/17 05:24:36;;;;;;;3.37;1.00;;;8.50;99.90;;;;;;5030829;28;20251;-59
2023/05/17 05:27:04;;;;;;;1.67;1.20;;;8.50;99.90;;;;;;5025608;28;20303;-60
2023/05/17 05:29:31;;;;;;;1.53;0.70;;;8.40;99.90;;;;;;5023020;28;20618;-59
2023/05/17 05:31:59;;;;;;;2.80;0.77;;;8.40;99.90;;;;;;5024861;28;20207;-59
2023/05/17 05:34:30;;;;;;;1.97;1.37;;;8.50;99.90;;;;;;5029804;28;20207;-59
2023/05/17 05:36:58;;;;;;;2.37;0.93;;;8.50;99.90;;;;;;5021385;28;20230;-59
2023/05/17 05:39:26;;;;;;;5.40;1.63;;;8.50;99.90;;;;;;5028281;28;20209;-60
2023/05/17 05:41:55;;;;;;;5.13;1.97;;;8.50;99.90;;;;;;5025807;28;20196;-59
2023/05/17 05:44:22;;;;;;;3.30;1.27;;;8.60;99.90;;;;;;5041060;28;20208;-59
2023/05/17 05:46:49;;;;;;;3.93;1.77;;;8.70;99.90;;;;;;5028550;28;20681;-60
2023/05/17 05:49:16;;;;;;;4.57;1.77;;;8.70;99.90;;;;;;5036399;28;20204;-60
2023/05/17 05:51:44;;;;;;;3.30;1.63;;;8.80;99.90;;;;;;5024599;28;20689;-60
2023/05/17 05:54:13;;;;;;;7.13;2.30;;;8.80;99.90;;;;;;5017472;28;20685;-60
2023/05/17 05:56:40;;;;;;;10.43;1.87;;;8.90;99.90;;;;;;5021573;28;20226;-59
2023/05/17 05:59:08;;;;;;;2.43;1.70;;;8.90;99.90;;;;;;5017715;28;20207;-59
2023/05/17 06:01:36;;;;;;;4.80;1.60;;;9.00;99.90;;;;;;5033544;28;20274;-60
2023/05/17 06:04:03;;;;;;;1.63;1.23;;;9.00;99.90;;;;;;5028956;28;20290;-60
2023/05/17 06:06:30;;;;;;;2.83;1.30;;;9.10;99.90;;;;;;5025479;28;20223;-60
2023/05/17 06:08:57;;;;;;;4.10;0.87;;;9.20;99.90;;;;;;5040758;28;20195;-59
2023/05/17 06:11:26;;;;;;;1.50;0.77;;;9.30;99.90;;;;;;5050460;28;20223;-60
2023/05/17 06:13:53;;;;;;;1.80;0.93;;;9.30;99.90;;;;;;5022462;28;20254;-60
2023/05/17 06:16:21;;;;;;;2.30;1.10;;;9.30;99.90;;;;;;5020421;28;20280;-59
2023/05/17 06:18:48;;;;;;;3.57;1.13;;;9.20;99.90;;;;;;5031471;28;20670;-60
2023/05/17 06:21:17;;;;;;;1.23;0.43;;;9.20;99.90;;;;;;5042227;28;20283;-59
2023/05/17 06:23:44;;;;;;;2.53;0.80;;;9.20;99.90;;;;;;5036575;28;20216;-60
2023/05/17 06:26:11;;;;;;;3.58;1.50;;;9.30;99.90;;;;;;5027197;28;20515;-63
2023/05/17 06:28:38;;;;;;;2.33;0.87;;;9.40;99.90;;;;;;5037909;28;20346;-66
2023/05/17 06:31:05;;;;;;;1.77;0.60;;;9.50;99.90;;;;;;5038043;28;20219;-58
2023/05/17 06:33:33;;;;;;;7.63;0.90;;;9.60;99.90;;;;;;5037082;28;20556;-53
2023/05/17 06:36:00;;;;;;;7.83;0.83;;;9.60;99.90;;;;;;5032248;28;20200;-62
2023/05/17 06:38:27;;;;;;;1.60;0.87;;;9.60;99.90;;;;;;5037240;28;20200;-61
2023/05/17 06:40:56;;;;;;;0.70;0.60;;;9.80;99.90;;;;;;5030687;28;20654;-63
2023/05/17 06:43:23;;;;;;;1.90;0.90;;;10.00;99.90;;;;;;5030507;28;20208;-64
2023/05/17 06:45:50;;;;;;;0.83;0.83;;;10.10;99.90;;;;;;5040436;28;20205;-63
2023/05/17 06:48:17;;;;;;;2.33;0.93;;;10.30;99.90;;;;;;5052010;28;20232;-66
2023/05/17 06:50:45;;;;;;;2.77;0.80;;;10.40;99.90;;;;;;5040023;28;20260;-62
2023/05/17 06:53:12;;;;;;;5.20;0.80;;;10.50;99.90;;;;;;5033376;28;20774;-63
2023/05/17 06:55:40;;;;;;;2.97;0.60;;;10.60;99.90;;;;;;5041151;28;20290;-62
2023/05/17 06:58:07;;;;;;;3.37;0.50;;;10.50;99.90;;;;;;5050552;28;20283;-63
2023/05/17 07:00:34;;;;;;;3.47;1.10;;;10.50;99.90;;;;;;5053640;28;20197;-61
2023/05/17 07:03:01;;;;;;;8.07;1.57;;;10.60;99.90;;;;;;5043065;28;20197;-64
2023/05/17 07:05:29;;;;;;;3.23;0.77;;;10.80;99.90;;;;;;5041114;28;20197;-66
2023/05/17 07:07:58;;;;;;;3.30;0.77;;;10.90;99.90;;;;;;5033379;28;20255;-64
2023/05/17 07:10:25;;;;;;;0.80;0.80;;;10.90;99.90;;;;;;5033661;28;20204;-63
2023/05/17 07:12:53;;;;;;;7.57;0.83;;;11.00;99.90;;;;;;5023631;28;20311;-65
2023/05/17 07:15:20;;;;;;;2.93;0.60;;;11.00;99.90;;;;;;5035561;28;20200;-55
2023/05/17 07:17:47;;;;;;;1.80;0.60;;;11.00;99.90;;;;;;5050349;28;20220;-61
2023/05/17 07:20:14;;;;;;;1.40;0.80;;;11.00;99.90;;;;;;5053016;28;20212;-65
2023/05/17 07:22:42;;;;;;;1.83;0.50;;;11.20;99.90;;;;;;5039669;28;20241;-61
2023/05/17 07:25:11;;;;;;;2.77;0.60;;;11.20;99.90;;;;;;5040633;28;20220;-65
2023/05/17 07:27:41;;;;;;;4.73;0.53;;;11.30;99.90;;;;;;5045860;28;20220;-63
2023/05/17 07:30:09;;;;;;;4.77;0.90;;;11.50;99.90;;;;;;5052952;28;20209;-64
2023/05/17 07:32:36;;;;;;;2.77;0.40;;;11.50;99.90;;;;;;5052577;28;20221;-64
2023/05/17 07:35:03;;;;;;;0.70;0.70;;;11.70;99.90;;;;;;5033137;28;20275;-62
2023/05/17 07:37:30;;;;;;;0.50;0.47;;;11.90;99.90;;;;;;5027837;28;20769;-61
2023/05/17 07:39:57;;;;;;;5.07;0.60;;;12.00;99.90;;;;;;5044070;28;20694;-62
2023/05/17 07:42:25;;;;;;;1.93;0.70;;;12.00;99.90;;;;;;5040856;28;20638;-62
2023/05/17 07:44:52;;;;;;;6.53;0.63;;;12.10;99.90;;;;;;5032950;28;20243;-65
2023/05/17 07:47:19;;;;;;;0.50;0.30;;;11.80;99.90;;;;;;5028176;28;20283;-65
2023/05/17 07:49:46;;;;;;;1.70;0.50;;;11.90;99.90;;;;;;5039861;28;20240;-65
2023/05/17 07:52:13;;;;;;;1.27;0.90;;;12.00;99.90;;;;;;5039899;28;20236;-64
2023/05/17 07:54:40;;;;;;;5.93;1.03;;;12.10;99.90;;;;;;5029349;28;20237;-64
2023/05/17 07:57:07;;;;;;;1.87;0.50;;;12.10;99.90;;;;;;5029829;28;20221;-62
2023/05/17 07:59:36;;;;;;;0.87;0.50;;;12.20;99.90;;;;;;5038049;28;20238;-52
2023/05/17 08:05:24;;;;;;;4.30;0.63;;;12.30;99.90;;;;;;5042168;28;20221;-65
2023/05/17 08:07:52;;;;;;;2.97;0.70;;;12.50;99.90;;;;;;5053421;28;20274;-61
2023/05/17 08:10:19;;;;;;;2.80;0.83;;;12.30;99.90;;;;;;5037911;28;20236;-62
2023/05/17 08:12:46;;;;;;;1.23;0.50;;;12.10;99.90;;;;;;5033375;28;20228;-62
2023/05/17 08:15:14;;;;;;;2.13;1.30;;;11.90;99.90;;;;;;5033440;28;20212;-62
2023/05/17 08:17:41;;;;;;;1.13;0.60;;;11.90;99.90;;;;;;5070942;22;20255;-61
2023/05/17 08:20:09;;;;;;;1.53;0.80;;;12.00;99.90;;;;;;5051977;28;20510;-61
2023/05/17 08:22:37;;;;;;;8.77;0.77;;;12.10;99.90;;;;;;5051600;28;20254;-59
2023/05/17 08:25:04;;;;;;;0.93;0.40;;;12.10;99.90;;;;;;5051816;28;20670;-60
2023/05/17 08:27:31;;;;;;;3.33;0.60;;;12.20;99.90;;;;;;5060789;28;20338;-64
2023/05/17 08:29:59;;;;;;;2.53;0.60;;;12.30;99.90;;;;;;5072162;28;20214;-63
2023/05/17 08:32:28;;;;;;;1.33;0.60;;;12.40;99.90;;;;;;5070208;28;20224;-65
2023/05/17 08:34:55;;;;;;;3.90;0.40;;;12.50;99.90;;;;;;5069997;28;20200;-64
2023/05/17 08:37:23;;;;;;;0.80;0.43;;;12.40;99.90;;;;;;5071897;28;20222;-64
2023/05/17 08:39:50;;;;;;;2.63;0.60;;;12.50;99.90;;;;;;5071819;28;20207;-64
2023/05/17 08:42:24;;;;;;;3.47;0.50;;;12.30;99.90;;;;;;5071497;28;20204;-60
2023/05/17 08:44:51;;;;;;;1.00;0.40;;;12.10;99.90;;;;;;5071594;28;20207;-55
2023/05/17 08:47:28;;;;;;;2.73;0.60;;;11.90;99.90;;;;;;5071502;28;20221;-55
2023/05/17 08:49:59;;;;;;;2.77;0.43;;;11.80;99.90;;;;;;5071118;28;20199;-55
2023/05/17 08:52:29;;;;;;;3.27;0.70;;;11.80;99.90;;;;;;5071215;28;20493;-55
2023/05/17 08:54:57;;;;;;;3.43;0.60;;;11.80;99.90;;;;;;5071363;28;20197;-55
2023/05/17 08:57:26;;;;;;;1.37;0.43;;;11.70;99.90;;;;;;5071111;28;20223;-55
2023/05/17 08:59:55;;;;;;;0.77;0.40;;;11.90;99.90;;;;;;5071282;28;20205;-55
2023/05/17 09:02:24;;;;;;;0.77;0.63;;;11.70;99.90;;;;;;5070882;28;20195;-55
2023/05/17 09:04:54;;;;;;;2.23;0.60;;;11.80;99.90;;;;;;5070029;28;20666;-55
2023/05/17 09:07:22;;;;;;;3.47;0.43;;;12.00;99.90;;;;;;5070840;28;20665;-55
2023/05/17 09:09:52;;;;;;;0.50;0.40;;;12.00;99.90;;;;;;5070905;28;20286;-55
2023/05/17 09:12:20;;;;;;;0.80;0.60;;;11.90;99.90;;;;;;5070644;28;20223;-56
2023/05/17 09:14:47;;;;;;;2.90;0.97;;;11.90;99.90;;;;;;5070896;28;20285;-54
2023/05/17 09:17:16;;;;;;;3.20;1.60;;;12.00;99.90;;;;;;5069430;28;20257;-54
2023/05/17 09:19:45;;;;;;;3.03;0.70;;;12.20;99.90;;;;;;5070854;28;20204;-54
2023/05/17 09:22:14;;;;;;;6.10;2.70;;;12.40;99.90;;;;;;5070439;28;20211;-54
2023/05/17 09:24:42;;;;;;;5.23;0.93;;;12.50;99.90;;;;;;5070829;28;20210;-54
2023/05/17 09:27:14;;;;;;;0.90;0.60;;;12.80;99.90;;;;;;5070596;28;20261;-54
2023/05/17 09:29:41;;;;;;;2.60;0.70;;;13.10;99.90;;;;;;5071035;28;20205;-54
2023/05/17 09:32:15;;;;;;;2.23;0.40;;;13.60;99.90;;;;;;5070448;28;20285;-54
2023/05/17 09:34:44;;;;;;;1.03;0.50;;;13.70;99.90;;;;;;5070573;28;20198;-54
2023/05/17 09:37:15;;;;;;;2.00;0.30;;;13.60;99.90;;;;;;5070716;28;20269;-54
2023/05/17 09:39:46;;;;;;;2.13;0.37;;;13.30;99.90;;;;;;5070689;28;20266;-54
2023/05/17 09:42:13;;;;;;;4.00;1.13;;;13.40;99.90;;;;;;5070564;28;20196;-54
2023/05/17 09:44:52;;;;;;;1.90;0.50;;;13.60;99.90;;;;;;5070581;28;20213;-54
2023/05/17 09:47:26;;;;;;;3.07;0.80;;;13.70;99.90;;;;;;5070878;28;20231;-54
2023/05/17 09:49:53;;;;;;;1.67;0.50;;;13.60;99.90;;;;;;5070807;28;20208;-54
2023/05/17 09:52:21;;;;;;;1.73;0.40;;;13.80;99.90;;;;;;5060696;28;20243;-54
2023/05/17 09:54:56;;;;;;;1.17;0.50;;;13.90;99.90;;;;;;5050475;28;20571;-54
2023/05/17 09:57:25;;;;;;;0.20;0.20;;;13.80;99.90;;;;;;5060778;28;20227;-54
2023/05/17 09:59:55;;;;;;;2.23;1.33;;;14.20;99.90;;;;;;5070531;28;20197;-54
2023/05/17 10:02:25;;;;;;;3.07;0.40;;;14.70;99.90;;;;;;5070262;28;20205;-54
2023/05/17 10:04:55;;;;;;;1.00;0.40;;;15.10;99.90;;;;;;5070252;28;20209;-54
2023/05/17 10:07:25;;;;;;;1.40;0.30;;;15.70;99.90;;;;;;5070288;28;20217;-54
2023/05/17 10:09:53;;;;;;;1.80;0.60;;;16.30;99.90;;;;;;5070169;28;20200;-54
2023/05/17 10:12:23;;;;;;;1.03;0.33;;;16.20;99.90;;;;;;5069977;28;20225;-56
2023/05/17 10:14:54;;;;;;;2.07;0.30;;;16.20;99.90;;;;;;5070077;28;20209;-54
2023/05/17 10:17:22;;;;;;;0.70;0.40;;;15.80;99.90;;;;;;5074094;28;20243;-55
2023/05/17 10:19:50;;;;;;;1.60;0.33;;;16.30;99.90;;;;;;5074299;28;20315;-54
2023/05/17 10:22:18;;;;;;;1.30;0.40;;;16.50;99.90;;;;;;5073891;28;20291;-55
2023/05/17 10:24:46;;;;;;;2.00;0.80;;;16.30;99.90;;;;;;5074189;28;20673;-54
2023/05/17 10:27:13;;;;;;;0.60;0.40;;;16.30;99.90;;;;;;5074400;28;20332;-54
2023/05/17 10:29:43;;;;;;;1.33;0.50;;;16.20;99.90;;;;;;5074081;28;20209;-54
2023/05/17 10:32:13;;;;;;;2.43;0.60;;;16.20;99.90;;;;;;5073778;28;20266;-54
2023/05/17 10:34:40;;;;;;;1.53;0.30;;;16.20;99.90;;;;;;5074135;28;20216;-54
2023/05/17 10:37:07;;;;;;;1.67;0.40;;;16.20;99.90;;;;;;5073934;28;20224;-55
2023/05/17 10:39:37;;;;;;;0.97;0.73;;;16.10;99.90;;;;;;5074302;28;20207;-54
2023/05/17 10:42:07;;;;;;;2.00;0.60;;;16.10;99.90;;;;;;5073830;28;20977;-54
2023/05/17 10:44:36;;;;;;;1.07;0.70;;;16.00;99.90;;;;;;5073977;28;20282;-54
2023/05/17 10:47:05;;;;;;;3.60;0.40;;;15.80;99.90;;;;;;5073665;28;20312;-55
2023/05/17 10:49:33;;;;;;;1.80;0.60;;;15.70;99.90;;;;;;5073781;28;20227;-56
2023/05/17 10:52:12;;;;;;;3.20;3.03;;;15.50;99.90;;;;;;5073906;28;20208;-56
2023/05/17 10:54:42;;;;;;;3.80;0.87;;;15.60;99.90;;;;;;5073893;28;20243;-56
2023/05/17 10:57:18;;;;;;;0.53;0.30;;;15.40;99.90;;;;;;5073656;28;20221;-54
2023/05/17 10:59:57;;;;;;;1.20;0.70;;;15.00;99.90;;;;;;5073897;28;20204;-54
2023/05/17 11:02:27;;;;;;;1.00;0.90;;;14.70;99.90;;;;;;5073487;28;20508;-54
2023/05/17 11:04:56;;;;;;;1.83;1.43;;;14.80;99.90;;;;;;5073440;28;20264;-54
2023/05/17 11:07:28;;;;;;;2.10;2.00;;;15.00;99.90;;;;;;5073349;28;20770;-54
2023/05/17 11:10:04;;;;;;;3.13;1.20;;;15.00;99.90;;;;;;5073347;28;20292;-54
2023/05/17 11:12:34;;;;;;;4.83;1.37;;;14.80;99.90;;;;;;5073162;28;20266;-54
2023/05/17 11:15:05;;;;;;;0.30;0.27;;;14.90;99.90;;;;;;5073542;28;20236;-54
2023/05/17 11:17:48;;;;;;;3.80;1.97;;;14.80;99.90;;;;;;5073244;28;20785;-54
2023/05/17 11:20:31;;;;;;;4.30;0.90;;;15.00;99.90;;;;;;5073253;28;20201;-54
2023/05/17 11:23:00;;;;;;;1.63;1.27;;;15.00;99.90;;;;;;5072972;28;20205;-54
2023/05/17 11:25:29;;;;;;;3.60;0.73;;;14.80;99.90;;;;;;5072623;28;20200;-54
2023/05/17 11:27:56;;;;;;;5.60;1.13;;;14.90;99.90;;;;;;5051978;28;20222;-55
2023/05/17 11:30:25;;;;;;;2.40;1.00;;;14.80;99.90;;;;;;5053307;28;20263;-54
2023/05/17 11:32:58;;;;;;;1.17;0.60;;;14.70;99.90;;;;;;5052940;28;20225;-54
2023/05/17 11:35:29;;;;;;;4.87;0.60;;;14.60;99.90;;;;;;5053102;28;20251;-54
2023/05/17 11:38:15;;;;;;;2.57;1.03;;;14.50;99.90;;;;;;5053039;28;20738;-56
2023/05/17 11:40:43;;;;;;;3.30;2.17;;;14.70;99.90;;;;;;5052586;28;20243;-54
2023/05/17 11:43:14;;;;;;;1.60;1.50;;;14.70;99.90;;;;;;5052585;28;20620;-54
2023/05/17 11:45:47;;;;;;;1.13;1.10;;;14.80;99.90;;;;;;5052897;28;20213;-54
2023/05/17 11:48:17;;;;;;;3.83;3.00;;;14.90;99.90;;;;;;5052773;28;20272;-54
2023/05/17 11:50:45;;;;;;;0.57;0.57;;;14.90;99.90;;;;;;5052823;28;20259;-54
2023/05/17 11:53:13;;;;;;;2.73;2.63;;;15.00;99.90;;;;;;5052218;28;20232;-54
2023/05/17 11:55:41;;;;;;;5.87;4.00;;;15.10;99.90;;;;;;5056989;28;20584;-54
2023/05/17 11:58:10;;;;;;;5.10;1.00;;;15.00;99.90;;;;;;5072533;28;20576;-54
2023/05/17 12:00:39;;;;;;;2.33;0.80;;;15.10;99.90;;;;;;5072429;28;20197;-54
2023/05/17 12:03:21;;;;;;;6.13;5.60;;;15.00;99.90;;;;;;5072166;28;20197;-54
2023/05/17 12:05:49;;;;;;;6.47;3.37;;;15.20;99.90;;;;;;5072337;28;20250;-54
2023/05/17 12:08:17;;;;;;;2.13;2.03;;;15.30;99.90;;;;;;5072385;28;20302;-54
2023/05/17 12:10:50;;;;;;;2.97;1.40;;;15.20;99.90;;;;;;5069791;28;20219;-56
2023/05/17 12:13:18;;;;;;;7.53;6.67;;;15.20;99.90;;;;;;5070954;28;20213;-56
2023/05/17 12:15:55;;;;;;;1.80;1.20;;;15.20;99.90;;;;;;5072172;28;20201;-56
2023/05/17 12:18:24;;;;;;;3.53;1.87;;;15.20;99.90;;;;;;5071932;28;20240;-56
2023/05/17 12:20:55;;;;;;;1.57;0.60;;;15.10;99.90;;;;;;5066616;28;20254;-57
2023/05/17 12:23:32;;;;;;;6.87;6.27;;;14.90;99.90;;;;;;5069901;28;20193;-56
2023/05/17 12:26:07;;;;;;;1.50;0.50;;;15.00;99.90;;;;;;5071921;28;20243;-57
2023/05/17 12:28:34;;;;;;;2.93;2.83;;;15.10;99.90;;;;;;5071784;28;20220;-56
2023/05/17 12:31:03;;;;;;;1.37;0.80;;;15.20;99.90;;;;;;5071064;28;20259;-54
2023/05/17 12:33:38;;;;;;;1.23;0.90;;;15.30;99.90;;;;;;5070866;28;20270;-54
2023/05/17 12:36:05;;;;;;;2.77;2.10;;;15.50;99.90;;;;;;5071755;28;20552;-54
2023/05/17 12:38:33;;;;;;;2.10;1.60;;;15.50;99.90;;;;;;5071502;28;20298;-56
2023/05/17 12:41:03;;;;;;;3.40;1.57;;;15.50;99.90;;;;;;5070656;28;20588;-56
2023/05/17 12:43:32;;;;;;;4.80;4.40;;;15.50;99.90;;;;;;5071180;28;20201;-56
2023/05/17 12:46:04;;;;;;;1.90;0.57;;;15.50;99.90;;;;;;5071999;28;20265;-56
2023/05/17 12:48:32;;;;;;;4.50;4.10;;;15.70;99.90;;;;;;5065529;28;20232;-56
2023/05/17 12:51:07;;;;;;;1.73;0.60;;;15.80;99.90;;;;;;5063653;28;20620;-56
2023/05/17 12:53:41;;;;;;;2.10;0.70;;;15.80;99.90;;;;;;5070063;28;20224;-56
2023/05/17 12:56:14;;;;;;;1.60;1.60;;;15.50;99.90;;;;;;5069094;28;20247;-56
2023/05/17 12:58:41;;;;;;;5.13;4.53;;;15.20;99.90;;;;;;5069621;28;20221;-56
2023/05/17 13:01:12;;;;;;;3.77;2.00;;;15.10;99.90;;;;;;5063263;28;20197;-56
2023/05/17 13:03:39;;;;;;;3.60;1.00;;;15.00;99.90;;;;;;5068416;28;20201;-56